createdAt,value
2017-08-03T00:01:26.371Z,90.90
2017-08-03T00:03:53.925Z,91.00
2017-08-03T00:06:21.540Z,91.00
2017-08-03T00:08:49.062Z,90.90
2017-08-03T00:11:16.671Z,90.70
2017-08-03T00:13:44.190Z,90.70
2017-08-03T00:16:11.724Z,90.70
2017-08-03T00:18:39.260Z,90.60
2017-08-03T00:21:07.571Z,90.60
2017-08-03T00:23:35.086Z,90.60
2017-08-03T00:26:02.607Z,90.70
2017-08-03T00:28:30.115Z,90.80
2017-08-03T00:30:59.020Z,90.90
2017-08-03T00:33:26.527Z,90.90
2017-08-03T00:35:54.138Z,90.80
2017-08-03T00:38:21.698Z,90.90
2017-08-03T00:40:49.228Z,91.00
2017-08-03T00:43:17.499Z,90.90
2017-08-03T00:45:45.887Z,90.90
2017-08-03T00:48:14.187Z,90.70
2017-08-03T00:50:41.699Z,90.60
2017-08-03T00:53:09.303Z,90.80
2017-08-03T00:55:37.478Z,90.90
2017-08-03T00:58:05.008Z,90.60
2017-08-03T01:00:33.316Z,90.60
2017-08-03T01:03:00.876Z,90.60
2017-08-03T01:05:28.944Z,90.60
2017-08-03T01:07:56.508Z,90.70
2017-08-03T01:10:24.060Z,90.80
2017-08-03T01:12:51.574Z,90.90
2017-08-03T01:15:19.098Z,91.10
2017-08-03T01:17:47.277Z,91.20
2017-08-03T01:20:14.799Z,90.90
2017-08-03T01:22:42.306Z,90.90
2017-08-03T01:25:10.091Z,91.00
2017-08-03T01:27:37.699Z,91.20
2017-08-03T01:30:05.227Z,91.20
2017-08-03T01:32:33.507Z,91.10
2017-08-03T01:35:01.902Z,91.20
2017-08-03T01:37:29.411Z,91.20
2017-08-03T01:39:56.919Z,91.10
2017-08-03T01:42:24.451Z,90.90
2017-08-03T01:44:52.723Z,90.80
2017-08-03T01:47:20.419Z,90.80
2017-08-03T01:49:48.324Z,90.90
2017-08-03T01:52:15.859Z,90.70
2017-08-03T01:54:43.371Z,91.10
2017-08-03T01:57:11.680Z,90.80
2017-08-03T01:59:39.190Z,91.10
2017-08-03T02:02:06.723Z,91.10
2017-08-03T02:04:34.235Z,91.30
2017-08-03T02:07:02.519Z,91.30
2017-08-03T02:09:30.047Z,91.30
2017-08-03T02:11:58.342Z,91.10
2017-08-03T02:14:26.631Z,91.20
2017-08-03T02:16:54.135Z,91.10
2017-08-03T02:19:21.749Z,91.50
2017-08-03T02:21:49.859Z,91.40
2017-08-03T02:24:17.374Z,91.20
2017-08-03T02:26:45.390Z,90.90
2017-08-03T02:29:13.015Z,91.00
2017-08-03T02:31:40.539Z,90.80
2017-08-03T02:34:08.818Z,90.70
2017-08-03T02:36:36.402Z,90.60
2017-08-03T02:39:03.909Z,90.70
2017-08-03T02:41:31.541Z,90.60
2017-08-03T02:43:59.090Z,90.60
2017-08-03T02:46:26.615Z,90.60
2017-08-03T02:48:54.897Z,90.70
2017-08-03T02:51:23.187Z,90.30
2017-08-03T02:53:50.695Z,90.30
2017-08-03T02:56:18.226Z,90.40
2017-08-03T02:58:45.734Z,90.40
2017-08-03T03:01:13.331Z,90.50
2017-08-03T03:03:40.884Z,90.50
2017-08-03T03:06:08.455Z,90.60
2017-08-03T03:08:35.975Z,90.80
2017-08-03T03:11:04.630Z,91.30
2017-08-03T03:13:32.154Z,90.90
2017-08-03T03:15:59.694Z,90.80
2017-08-03T03:18:27.271Z,90.00
2017-08-03T03:20:54.793Z,90.20
2017-08-03T03:23:22.322Z,90.60
2017-08-03T03:25:49.849Z,90.80
2017-08-03T03:28:17.368Z,90.50
2017-08-03T03:30:45.665Z,90.60
2017-08-03T03:33:13.408Z,90.60
2017-08-03T03:35:41.714Z,90.80
2017-08-03T03:38:09.222Z,90.80
2017-08-03T03:40:36.739Z,90.80
2017-08-03T03:43:05.070Z,91.10
2017-08-03T03:45:32.662Z,91.00
2017-08-03T03:48:00.433Z,91.20
2017-08-03T03:50:27.986Z,90.80
2017-08-03T03:52:55.561Z,90.70
2017-08-03T03:55:23.112Z,90.70
2017-08-03T03:57:50.634Z,90.40
2017-08-03T04:00:18.139Z,90.00
2017-08-03T04:02:45.667Z,90.10
2017-08-03T04:05:13.623Z,89.40
2017-08-03T04:07:41.910Z,90.70
2017-08-03T04:10:10.189Z,90.40
2017-08-03T04:12:38.584Z,90.40
2017-08-03T04:15:06.095Z,90.40
2017-08-03T04:17:33.623Z,90.40
2017-08-03T04:20:01.126Z,90.00
2017-08-03T04:22:30.354Z,90.20
2017-08-03T04:24:57.863Z,90.20
2017-08-03T04:27:26.279Z,90.60
2017-08-03T04:29:54.123Z,90.70
2017-08-03T04:32:21.628Z,90.50
2017-08-03T04:34:49.157Z,90.30
2017-08-03T04:37:17.426Z,89.80
2017-08-03T04:39:45.108Z,89.70
2017-08-03T04:42:12.676Z,89.70
2017-08-03T04:44:40.198Z,89.60
2017-08-03T04:47:07.705Z,89.20
2017-08-03T04:49:35.227Z,88.50
2017-08-03T04:52:03.573Z,89.30
2017-08-03T04:54:31.096Z,89.30
2017-08-03T04:56:58.610Z,89.10
2017-08-03T04:59:27.014Z,88.40
2017-08-03T05:01:54.578Z,88.40
2017-08-03T05:04:22.138Z,88.00
2017-08-03T05:06:49.707Z,88.40
2017-08-03T05:09:17.205Z,88.10
2017-08-03T05:11:44.822Z,88.90
2017-08-03T05:14:12.331Z,90.00
2017-08-03T05:16:39.931Z,89.60
2017-08-03T05:19:07.486Z,89.10
2017-08-03T05:21:35.003Z,89.00
2017-08-03T05:24:02.508Z,88.70
2017-08-03T05:26:30.778Z,88.20
2017-08-03T05:28:59.110Z,88.70
2017-08-03T05:31:26.714Z,88.40
2017-08-03T05:33:54.308Z,88.50
2017-08-03T05:36:21.955Z,89.30
2017-08-03T05:38:49.494Z,89.00
2017-08-03T05:41:17.087Z,90.10
2017-08-03T05:43:45.232Z,88.90
2017-08-03T05:46:12.767Z,88.50
2017-08-03T05:48:41.066Z,87.10
2017-08-03T05:51:09.234Z,87.90
2017-08-03T05:53:36.794Z,86.50
2017-08-03T05:56:04.307Z,86.30
2017-08-03T05:58:31.908Z,86.20
2017-08-03T06:00:59.410Z,85.70
2017-08-03T06:03:26.934Z,85.10
2017-08-03T06:05:54.438Z,85.10
2017-08-03T06:08:21.963Z,84.90
2017-08-03T06:10:49.466Z,84.90
2017-08-03T06:13:16.994Z,84.80
2017-08-03T06:15:44.498Z,84.90
2017-08-03T06:18:12.790Z,85.40
2017-08-03T06:20:40.310Z,85.30
2017-08-03T06:23:07.814Z,84.90
2017-08-03T06:25:35.334Z,84.10
2017-08-03T06:28:02.844Z,84.60
2017-08-03T06:30:30.391Z,84.80
2017-08-03T06:32:57.942Z,84.70
2017-08-03T06:35:25.463Z,86.10
2017-08-03T06:37:52.971Z,90.00
2017-08-03T06:40:21.223Z,91.30
2017-08-03T06:42:49.495Z,91.00
2017-08-03T06:45:17.783Z,90.40
2017-08-03T06:47:45.286Z,90.40
2017-08-03T06:50:12.806Z,91.00
2017-08-03T06:52:40.311Z,90.80
2017-08-03T06:55:07.860Z,91.80
2017-08-03T06:57:35.367Z,91.80
2017-08-03T07:00:03.683Z,91.30
2017-08-03T07:02:31.215Z,91.30
2017-08-03T07:04:58.729Z,91.90
2017-08-03T07:07:26.259Z,92.60
2017-08-03T07:09:53.786Z,93.10
2017-08-03T07:12:21.311Z,93.10
2017-08-03T07:14:48.909Z,93.90
2017-08-03T07:17:16.440Z,94.00
2017-08-03T07:19:44.710Z,94.20
2017-08-03T07:22:13.002Z,94.60
2017-08-03T07:24:40.727Z,94.60
2017-08-03T07:27:08.251Z,94.50
2017-08-03T07:29:35.762Z,94.70
2017-08-03T07:32:03.351Z,95.10
2017-08-03T07:34:30.858Z,95.30
2017-08-03T07:36:58.367Z,94.80
2017-08-03T07:39:25.891Z,95.00
2017-08-03T07:41:53.399Z,95.10
2017-08-03T07:44:20.919Z,95.80
2017-08-03T07:46:49.200Z,95.90
2017-08-03T07:49:17.598Z,95.80
2017-08-03T07:51:45.107Z,95.80
2017-08-03T07:54:12.635Z,95.90
2017-08-03T07:56:40.151Z,96.00
2017-08-03T07:59:08.455Z,96.30
2017-08-03T08:01:36.010Z,96.20
2017-08-03T08:04:03.519Z,96.10
2017-08-03T08:06:31.438Z,96.20
2017-08-03T08:08:58.952Z,96.10
2017-08-03T08:11:26.557Z,96.00
2017-08-03T08:13:54.675Z,96.60
2017-08-03T08:16:22.282Z,96.90
2017-08-03T08:18:49.950Z,96.00
2017-08-03T08:21:17.479Z,96.70
2017-08-03T08:23:45.754Z,95.70
2017-08-03T08:26:14.031Z,96.30
2017-08-03T08:28:42.328Z,96.80
2017-08-03T08:31:09.896Z,96.80
2017-08-03T08:33:37.427Z,96.80
2017-08-03T08:36:05.726Z,95.90
2017-08-03T08:38:33.263Z,96.30
2017-08-03T08:41:02.267Z,96.00
2017-08-03T08:43:29.808Z,96.00
2017-08-03T08:45:58.087Z,96.00
2017-08-03T08:48:26.367Z,95.90
2017-08-03T08:50:54.661Z,96.20
2017-08-03T08:53:22.175Z,96.20
2017-08-03T08:55:49.699Z,97.00
2017-08-03T08:58:17.216Z,97.10
2017-08-03T09:00:45.619Z,96.50
2017-08-03T09:03:13.127Z,96.40
2017-08-03T09:05:40.655Z,96.20
2017-08-03T09:08:08.176Z,95.70
2017-08-03T09:10:35.751Z,95.60
2017-08-03T09:13:03.795Z,95.30
2017-08-03T09:15:32.068Z,94.90
2017-08-03T09:18:00.371Z,94.70
2017-08-03T09:20:28.787Z,94.70
2017-08-03T09:22:56.315Z,94.50
2017-08-03T09:25:23.819Z,94.70
2017-08-03T09:27:51.431Z,92.70
2017-08-03T09:30:19.091Z,93.00
2017-08-03T09:32:46.611Z,92.00
2017-08-03T09:35:14.122Z,92.10
2017-08-03T09:37:42.142Z,92.50
2017-08-03T09:40:09.975Z,90.30
2017-08-03T09:42:37.483Z,90.50
2017-08-03T09:45:05.876Z,90.70
2017-08-03T09:47:33.395Z,90.70
2017-08-03T09:50:00.919Z,90.80
2017-08-03T09:52:28.454Z,91.00
2017-08-03T09:54:55.975Z,89.30
2017-08-03T09:57:23.566Z,87.10
2017-08-03T09:59:51.127Z,88.10
2017-08-03T10:02:18.794Z,87.20
2017-08-03T10:04:46.659Z,85.70
2017-08-03T10:07:14.189Z,87.40
2017-08-03T10:09:42.490Z,85.60
2017-08-03T10:12:10.023Z,85.50
2017-08-03T10:14:38.335Z,86.20
2017-08-03T10:17:05.863Z,86.10
2017-08-03T10:19:34.143Z,83.80
2017-08-03T10:22:02.435Z,84.70
2017-08-03T10:24:29.940Z,84.60
2017-08-03T10:26:57.463Z,86.60
2017-08-03T10:29:25.011Z,88.20
2017-08-03T10:31:52.622Z,84.10
2017-08-03T10:34:20.135Z,84.90
2017-08-03T10:36:47.688Z,84.20
2017-08-03T10:39:15.215Z,82.70
2017-08-03T10:41:43.497Z,82.70
2017-08-03T10:44:11.803Z,84.40
2017-08-03T10:46:39.354Z,84.30
2017-08-03T10:49:06.919Z,81.40
2017-08-03T10:51:35.294Z,82.40
2017-08-03T10:54:02.859Z,78.90
2017-08-03T10:56:30.620Z,79.00
2017-08-03T10:58:58.150Z,80.20
2017-08-03T11:01:26.450Z,73.50
2017-08-03T11:03:53.985Z,73.50
2017-08-03T11:06:21.496Z,72.90
2017-08-03T11:08:49.008Z,75.90
2017-08-03T11:11:17.395Z,72.60
2017-08-03T11:13:44.902Z,72.50
2017-08-03T11:16:12.424Z,69.60
2017-08-03T11:18:39.928Z,66.50
2017-08-03T11:21:07.542Z,68.10
2017-08-03T11:23:35.043Z,68.00
2017-08-03T11:26:02.558Z,64.90
2017-08-03T11:28:30.115Z,63.60
2017-08-03T11:30:57.647Z,65.10
2017-08-03T11:33:25.164Z,67.70
2017-08-03T11:35:52.671Z,68.30
2017-08-03T11:38:20.194Z,67.80
2017-08-03T11:40:47.687Z,64.90
2017-08-03T11:43:15.267Z,66.10
2017-08-03T11:45:42.828Z,66.50
2017-08-03T11:48:10.362Z,67.80
2017-08-03T11:50:37.868Z,67.70
2017-08-03T11:53:05.398Z,66.30
2017-08-03T11:55:33.219Z,67.90
2017-08-03T11:58:00.821Z,67.90
2017-08-03T12:00:28.383Z,66.50
2017-08-03T12:02:55.887Z,67.00
2017-08-03T12:05:23.406Z,66.50
2017-08-03T12:07:50.911Z,67.30
2017-08-03T12:10:18.511Z,65.50
2017-08-03T12:12:46.019Z,66.40
2017-08-03T12:15:13.631Z,67.20
2017-08-03T12:17:41.136Z,65.10
2017-08-03T12:20:08.744Z,66.10
2017-08-03T12:22:36.251Z,67.70
2017-08-03T12:25:03.868Z,66.20
2017-08-03T12:27:31.375Z,68.00
2017-08-03T12:29:58.893Z,69.50
2017-08-03T12:32:26.439Z,71.50
2017-08-03T12:34:54.003Z,71.30
2017-08-03T12:37:21.559Z,71.00
2017-08-03T12:39:49.788Z,70.40
2017-08-03T12:42:17.384Z,70.60
2017-08-03T12:44:44.894Z,71.00
2017-08-03T12:47:12.516Z,72.20
2017-08-03T12:49:40.027Z,71.20
2017-08-03T12:52:07.637Z,72.40
2017-08-03T12:54:35.160Z,72.50
2017-08-03T12:57:04.044Z,66.60
2017-08-03T12:59:32.319Z,67.30
2017-08-03T13:02:00.632Z,65.80
2017-08-03T13:04:28.197Z,65.80
2017-08-03T13:06:55.712Z,66.20
2017-08-03T13:09:24.009Z,69.60
2017-08-03T13:11:51.514Z,68.80
2017-08-03T13:14:19.138Z,68.00
2017-08-03T13:16:46.651Z,70.20
2017-08-03T13:19:14.171Z,64.50
2017-08-03T13:21:42.154Z,65.50
2017-08-03T13:24:09.694Z,62.40
2017-08-03T13:26:37.203Z,62.10
2017-08-03T13:29:04.712Z,67.20
2017-08-03T13:31:32.235Z,61.40
2017-08-03T13:33:59.825Z,59.00
2017-08-03T13:36:27.351Z,60.70
2017-08-03T13:38:54.937Z,60.70
2017-08-03T13:41:22.490Z,59.80
2017-08-03T13:43:50.007Z,60.00
2017-08-03T13:46:17.527Z,58.50
2017-08-03T13:48:45.074Z,63.20
2017-08-03T13:51:12.598Z,61.60
2017-08-03T13:53:41.339Z,61.50
2017-08-03T13:56:08.847Z,60.40
2017-08-03T13:58:36.441Z,59.30
2017-08-03T14:01:03.999Z,60.20
2017-08-03T14:03:31.550Z,61.80
2017-08-03T14:05:59.059Z,60.10
2017-08-03T14:08:26.588Z,61.00
2017-08-03T14:10:54.095Z,61.10
2017-08-03T14:13:22.387Z,61.40
2017-08-03T14:15:49.895Z,61.40
2017-08-03T14:18:17.426Z,62.80
2017-08-03T14:20:45.447Z,63.00
2017-08-03T14:23:13.163Z,64.10
2017-08-03T14:25:41.411Z,63.60
2017-08-03T14:28:09.291Z,64.00
2017-08-03T14:30:36.816Z,65.40
2017-08-03T14:33:05.083Z,66.00
2017-08-03T14:35:32.612Z,65.00
2017-08-03T14:38:00.114Z,65.00
2017-08-03T14:40:28.326Z,65.80
2017-08-03T14:42:55.822Z,66.10
2017-08-03T14:45:23.436Z,65.30
2017-08-03T14:47:50.943Z,64.70
2017-08-03T14:50:19.375Z,66.00
2017-08-03T14:52:46.926Z,65.00
2017-08-03T14:55:14.748Z,66.80
2017-08-03T14:57:42.354Z,66.70
2017-08-03T15:00:09.914Z,67.70
2017-08-03T15:02:37.468Z,67.90
2017-08-03T15:05:04.975Z,67.90
2017-08-03T15:07:32.492Z,68.30
2017-08-03T15:10:00.051Z,69.20
2017-08-03T15:12:28.024Z,69.20
2017-08-03T15:14:55.575Z,69.80
2017-08-03T15:17:23.434Z,69.80
2017-08-03T15:19:51.044Z,68.70
2017-08-03T15:22:18.556Z,67.00
2017-08-03T15:24:46.059Z,63.80
2017-08-03T15:27:13.582Z,59.60
2017-08-03T15:29:41.083Z,57.20
2017-08-03T15:32:08.603Z,55.20
2017-08-03T15:34:36.110Z,55.60
2017-08-03T15:37:03.639Z,53.90
2017-08-03T15:39:31.145Z,55.70
2017-08-03T15:41:59.434Z,58.60
2017-08-03T15:44:26.935Z,58.60
2017-08-03T15:46:54.454Z,59.30
2017-08-03T15:49:22.027Z,59.60
2017-08-03T15:51:49.897Z,56.90
2017-08-03T15:54:17.411Z,57.60
2017-08-03T15:56:44.919Z,56.20
2017-08-03T15:59:12.454Z,56.00
2017-08-03T16:01:39.958Z,55.40
2017-08-03T16:04:07.483Z,55.70
2017-08-03T16:06:34.988Z,55.30
2017-08-03T16:09:02.514Z,56.10
2017-08-03T16:11:30.508Z,57.10
2017-08-03T16:13:58.007Z,56.90
2017-08-03T16:16:25.528Z,57.30
2017-08-03T16:18:53.031Z,55.60
2017-08-03T16:21:20.555Z,56.50
2017-08-03T16:23:48.831Z,58.00
2017-08-03T16:26:17.113Z,56.90
2017-08-03T16:28:44.699Z,57.20
2017-08-03T16:31:12.224Z,56.30
2017-08-03T16:33:41.380Z,53.90
2017-08-03T16:36:08.914Z,53.40
2017-08-03T16:38:36.419Z,53.00
2017-08-03T16:41:03.914Z,53.10
2017-08-03T16:43:31.435Z,54.20
2017-08-03T16:45:59.039Z,54.10
2017-08-03T16:48:26.608Z,53.30
2017-08-03T16:50:54.161Z,53.50
2017-08-03T16:53:21.687Z,54.00
2017-08-03T16:55:49.955Z,54.20
2017-08-03T16:58:17.482Z,55.00
2017-08-03T17:00:44.978Z,54.90
2017-08-03T17:03:12.576Z,54.90
2017-08-03T17:05:40.135Z,55.50
2017-08-03T17:08:08.435Z,55.40
2017-08-03T17:10:35.955Z,56.80
2017-08-03T17:13:03.460Z,56.90
2017-08-03T17:15:31.083Z,54.20
2017-08-03T17:17:58.586Z,53.90
2017-08-03T17:20:26.103Z,54.30
2017-08-03T17:22:53.659Z,56.20
2017-08-03T17:25:21.183Z,54.00
2017-08-03T17:27:49.450Z,55.90
2017-08-03T17:30:17.094Z,55.10
2017-08-03T17:32:44.599Z,53.80
2017-08-03T17:35:12.184Z,53.60
2017-08-03T17:37:39.730Z,54.50
2017-08-03T17:40:07.296Z,55.10
2017-08-03T17:42:34.820Z,55.20
2017-08-03T17:45:03.093Z,53.60
2017-08-03T17:47:31.381Z,53.80
2017-08-03T17:49:58.888Z,53.80
2017-08-03T17:52:26.519Z,53.90
2017-08-03T17:54:54.069Z,54.30
2017-08-03T17:57:21.635Z,54.30
2017-08-03T17:59:50.731Z,54.20
2017-08-03T18:02:18.251Z,54.70
2017-08-03T18:04:46.527Z,54.50
2017-08-03T18:07:14.051Z,54.50
2017-08-03T18:09:41.583Z,55.20
2017-08-03T18:12:09.083Z,55.60
2017-08-03T18:14:36.604Z,56.10
2017-08-03T18:17:04.106Z,56.00
2017-08-03T18:19:31.715Z,56.10
2017-08-03T18:21:59.265Z,56.50
2017-08-03T18:24:26.836Z,56.50
2017-08-03T18:26:54.437Z,56.70
2017-08-03T18:29:22.017Z,56.80
2017-08-03T18:31:49.537Z,56.50
2017-08-03T18:34:17.083Z,56.60
2017-08-03T18:36:44.634Z,56.60
2017-08-03T18:39:12.191Z,56.90
2017-08-03T18:41:39.710Z,56.60
2017-08-03T18:44:07.228Z,56.60
2017-08-03T18:46:34.763Z,57.10
2017-08-03T18:49:02.331Z,58.60
2017-08-03T18:51:29.856Z,59.10
2017-08-03T18:53:58.126Z,60.00
2017-08-03T18:56:26.441Z,60.00
2017-08-03T18:58:53.996Z,59.90
2017-08-03T19:01:21.547Z,60.40
2017-08-03T19:03:49.052Z,61.10
2017-08-03T19:06:16.671Z,61.20
2017-08-03T19:08:44.178Z,61.50
2017-08-03T19:11:11.733Z,62.30
2017-08-03T19:13:39.251Z,63.30
2017-08-03T19:16:07.019Z,65.30
2017-08-03T19:18:34.603Z,65.00
2017-08-03T19:21:02.129Z,66.00
2017-08-03T19:23:29.678Z,68.30
2017-08-03T19:25:57.247Z,67.40
2017-08-03T19:28:24.768Z,66.10
2017-08-03T19:30:53.078Z,66.80
2017-08-03T19:33:20.596Z,66.80
2017-08-03T19:35:48.190Z,67.90
2017-08-03T19:38:16.467Z,68.60
2017-08-03T19:40:44.088Z,68.90
2017-08-03T19:43:11.734Z,69.30
2017-08-03T19:45:39.266Z,68.80
2017-08-03T19:48:06.772Z,69.30
2017-08-03T19:50:35.117Z,71.50
2017-08-03T19:53:02.624Z,71.40
2017-08-03T19:55:30.909Z,72.50
2017-08-03T19:57:58.883Z,72.30
2017-08-03T20:00:26.411Z,72.40
2017-08-03T20:02:53.918Z,73.10
2017-08-03T20:05:21.443Z,73.40
2017-08-03T20:07:53.609Z,73.80
2017-08-03T20:10:21.911Z,74.10
2017-08-03T20:12:49.551Z,74.10
2017-08-03T20:15:17.764Z,74.40
2017-08-03T20:17:45.286Z,74.70
2017-08-03T20:20:12.792Z,75.00
2017-08-03T20:22:40.489Z,76.20
2017-08-03T20:25:08.759Z,76.60
2017-08-03T20:27:36.333Z,76.40
2017-08-03T20:30:04.627Z,76.50
2017-08-03T20:32:32.167Z,76.50
2017-08-03T20:35:00.508Z,77.30
2017-08-03T20:37:28.859Z,77.30
2017-08-03T20:39:56.364Z,77.10
2017-08-03T20:42:23.875Z,78.30
2017-08-03T20:44:51.416Z,77.90
2017-08-03T20:47:18.962Z,77.50
2017-08-03T20:49:46.547Z,76.40
2017-08-03T20:52:14.053Z,76.10
2017-08-03T20:54:41.652Z,76.50
2017-08-03T20:57:09.212Z,78.00
2017-08-03T20:59:36.770Z,76.50
2017-08-03T21:02:04.892Z,75.10
2017-08-03T21:04:32.394Z,75.40
2017-08-03T21:06:59.919Z,75.10
2017-08-03T21:09:27.423Z,74.80
2017-08-03T21:11:54.976Z,74.60
2017-08-03T21:14:22.480Z,75.20
2017-08-03T21:16:50.002Z,74.60
2017-08-03T21:19:17.503Z,74.70
2017-08-03T21:21:45.028Z,74.60
2017-08-03T21:24:12.854Z,74.70
2017-08-03T21:26:41.347Z,76.20
2017-08-03T21:29:08.860Z,76.10
2017-08-03T21:31:36.466Z,75.00
2017-08-03T21:34:03.983Z,74.70
2017-08-03T21:36:31.591Z,73.10
2017-08-03T21:38:59.142Z,72.40
2017-08-03T21:41:26.650Z,72.20
2017-08-03T21:43:54.172Z,72.00
2017-08-03T21:46:21.683Z,72.10
2017-08-03T21:48:49.979Z,72.70
2017-08-03T21:51:18.274Z,72.50
2017-08-03T21:53:45.837Z,72.50
2017-08-03T21:56:13.343Z,72.90
2017-08-03T21:58:41.383Z,72.90
2017-08-03T22:01:17.815Z,73.00
2017-08-03T22:03:45.351Z,73.30
2017-08-03T22:06:12.854Z,74.30
2017-08-03T22:08:40.351Z,73.90
2017-08-03T22:11:07.963Z,73.90
2017-08-03T22:13:35.524Z,74.10
2017-08-03T22:16:03.497Z,73.90
2017-08-03T22:18:30.999Z,74.20
2017-08-03T22:20:58.608Z,74.50
2017-08-03T22:23:26.114Z,75.50
2017-08-03T22:25:53.627Z,75.00
2017-08-03T22:28:21.179Z,75.20
2017-08-03T22:30:49.571Z,76.60
2017-08-03T22:33:17.076Z,76.10
2017-08-03T22:35:44.607Z,76.40
2017-08-03T22:38:12.117Z,76.20
2017-08-03T22:40:40.151Z,76.90
2017-08-03T22:43:07.764Z,76.80
2017-08-03T22:45:35.324Z,76.50
2017-08-03T22:48:02.887Z,76.90
2017-08-03T22:50:30.791Z,76.70
2017-08-03T22:52:58.306Z,76.60
2017-08-03T22:55:25.867Z,76.90
2017-08-03T22:57:53.427Z,77.20
2017-08-03T23:00:20.964Z,77.80
2017-08-03T23:02:49.254Z,77.90
2017-08-03T23:05:16.768Z,77.80
2017-08-03T23:07:45.119Z,78.90
2017-08-03T23:10:12.627Z,79.70
2017-08-03T23:12:40.895Z,79.70
2017-08-03T23:15:08.716Z,79.60
2017-08-03T23:17:36.219Z,80.00
2017-08-03T23:20:03.811Z,80.00
2017-08-03T23:22:31.487Z,79.90
2017-08-03T23:24:59.007Z,80.00
2017-08-03T23:27:27.279Z,80.30
2017-08-03T23:29:55.563Z,80.90
2017-08-03T23:32:23.824Z,81.30
2017-08-03T23:34:51.365Z,81.30
2017-08-03T23:37:18.974Z,81.70
2017-08-03T23:39:46.540Z,82.30
2017-08-03T23:42:14.055Z,81.10
2017-08-03T23:44:41.561Z,81.60
2017-08-03T23:47:09.079Z,81.70
2017-08-03T23:49:38.035Z,82.50
2017-08-03T23:52:05.555Z,82.50
2017-08-03T23:54:33.063Z,82.90
2017-08-03T23:57:00.680Z,83.50
2017-08-03T23:59:28.695Z,83.40
